sensor_id;sensor_type;location;lat;lon;timestamp;P1;durP1;ratioP1;P2;durP2;ratioP2
44973;SDS011;60981;50.720;11.342;2023-05-23T10:16:33;4.85;;;2.08;;
44973;SDS011;60981;50.720;11.342;2023-05-23T12:28:13;4.13;;;1.75;;
44973;SDS011;60981;50.720;11.342;2023-05-23T12:29:32;3.95;;;1.70;;
44973;SDS011;60981;50.720;11.342;2023-05-23T12:30:42;2.63;;;1.35;;
44973;SDS011;60981;50.720;11.342;2023-05-23T12:40:17;5.85;;;1.70;;
44973;SDS011;60981;50.720;11.342;2023-05-23T12:41:19;4.10;;;1.20;;
44973;SDS011;60981;50.720;11.342;2023-05-23T12:42:23;5.85;;;1.10;;
44973;SDS011;60981;50.720;11.342;2023-05-23T12:43:25;3.63;;;1.08;;
44973;SDS011;60981;50.720;11.342;2023-05-23T12:44:30;4.82;;;1.38;;
44973;SDS011;60981;50.720;11.342;2023-05-23T12:45:33;6.07;;;1.30;;
44973;SDS011;60981;50.720;11.342;2023-05-23T12:46:40;3.03;;;1.30;;
44973;SDS011;60981;50.720;11.342;2023-05-23T12:47:43;3.78;;;1.20;;
44973;SDS011;60981;50.720;11.342;2023-05-23T12:48:47;3.38;;;1.10;;
44973;SDS011;60981;50.720;11.342;2023-05-23T12:49:50;3.80;;;1.20;;
44973;SDS011;60981;50.720;11.342;2023-05-23T12:50:54;3.00;;;1.20;;
44973;SDS011;60981;50.720;11.342;2023-05-23T12:51:58;2.35;;;1.00;;
44973;SDS011;60981;50.720;11.342;2023-05-23T12:53:00;2.45;;;1.02;;
44973;SDS011;60981;50.720;11.342;2023-05-23T12:54:02;3.45;;;1.10;;
44973;SDS011;60981;50.720;11.342;2023-05-23T12:55:05;2.78;;;1.23;;
44973;SDS011;60981;50.720;11.342;2023-05-23T12:56:07;3.97;;;1.20;;
44973;SDS011;60981;50.720;11.342;2023-05-23T12:57:10;7.53;;;1.23;;
44973;SDS011;60981;50.720;11.342;2023-05-23T12:58:11;3.03;;;0.90;;
44973;SDS011;60981;50.720;11.342;2023-05-23T12:59:14;2.70;;;1.17;;
44973;SDS011;60981;50.720;11.342;2023-05-23T13:00:16;5.18;;;1.15;;
44973;SDS011;60981;50.720;11.342;2023-05-23T13:01:19;4.40;;;1.02;;
44973;SDS011;60981;50.720;11.342;2023-05-23T13:02:27;4.00;;;0.85;;
44973;SDS011;60981;50.720;11.342;2023-05-23T13:03:30;3.13;;;0.80;;
44973;SDS011;60981;50.720;11.342;2023-05-23T13:04:32;2.88;;;0.88;;
44973;SDS011;60981;50.720;11.342;2023-05-23T13:05:44;3.45;;;0.93;;
44973;SDS011;60981;50.720;11.342;2023-05-23T13:07:09;4.93;;;1.00;;
44973;SDS011;60981;50.720;11.342;2023-05-23T13:10:01;4.43;;;1.10;;
44973;SDS011;60981;50.720;11.342;2023-05-23T13:11:30;2.45;;;1.05;;
44973;SDS011;60981;50.720;11.342;2023-05-23T13:12:32;2.50;;;0.70;;
44973;SDS011;60981;50.720;11.342;2023-05-23T13:13:37;2.20;;;0.70;;
44973;SDS011;60981;50.720;11.342;2023-05-23T13:14:40;6.18;;;1.20;;
44973;SDS011;60981;50.720;11.342;2023-05-23T13:16:30;1.90;;;0.70;;
44973;SDS011;60981;50.720;11.342;2023-05-23T13:17:19;2.92;;;0.95;;
44973;SDS011;60981;50.720;11.342;2023-05-23T13:19:05;2.30;;;0.70;;
44973;SDS011;60981;50.720;11.342;2023-05-23T13:20:12;4.93;;;0.77;;
44973;SDS011;60981;50.720;11.342;2023-05-23T13:21:48;2.65;;;0.80;;
44973;SDS011;60981;50.720;11.342;2023-05-23T13:23:00;2.20;;;0.80;;
44973;SDS011;60981;50.720;11.342;2023-05-23T13:24:30;3.55;;;0.80;;
44973;SDS011;60981;50.720;11.342;2023-05-23T13:25:32;3.13;;;1.30;;
44973;SDS011;60981;50.720;11.342;2023-05-23T13:26:34;2.45;;;0.65;;
44973;SDS011;60981;50.720;11.342;2023-05-23T13:27:37;2.28;;;0.77;;
44973;SDS011;60981;50.720;11.342;2023-05-23T13:28:39;3.60;;;1.10;;
44973;SDS011;60981;50.720;11.342;2023-05-23T13:29:41;4.35;;;1.08;;
44973;SDS011;60981;50.720;11.342;2023-05-23T13:30:43;2.58;;;0.77;;
44973;SDS011;60981;50.720;11.342;2023-05-23T13:31:47;3.72;;;1.30;;
44973;SDS011;60981;50.720;11.342;2023-05-23T13:32:49;4.80;;;1.23;;
44973;SDS011;60981;50.720;11.342;2023-05-23T13:33:55;3.72;;;0.98;;
44973;SDS011;60981;50.720;11.342;2023-05-23T13:34:57;4.03;;;1.00;;
44973;SDS011;60981;50.720;11.342;2023-05-23T13:36:00;2.15;;;0.90;;
44973;SDS011;60981;50.720;11.342;2023-05-23T13:37:02;3.60;;;0.90;;
44973;SDS011;60981;50.720;11.342;2023-05-23T13:38:06;3.83;;;1.23;;
44973;SDS011;60981;50.720;11.342;2023-05-23T13:39:08;2.88;;;1.02;;
44973;SDS011;60981;50.720;11.342;2023-05-23T13:40:16;2.38;;;1.00;;
44973;SDS011;60981;50.720;11.342;2023-05-23T13:41:19;3.20;;;1.13;;
44973;SDS011;60981;50.720;11.342;2023-05-23T13:42:21;2.97;;;1.10;;
44973;SDS011;60981;50.720;11.342;2023-05-23T13:43:23;3.33;;;1.20;;
44973;SDS011;60981;50.720;11.342;2023-05-23T13:44:27;2.97;;;1.30;;
44973;SDS011;60981;50.720;11.342;2023-05-23T13:45:29;2.25;;;0.95;;
44973;SDS011;60981;50.720;11.342;2023-05-23T13:46:31;3.13;;;1.13;;
44973;SDS011;60981;50.720;11.342;2023-05-23T13:47:34;3.30;;;1.30;;
44973;SDS011;60981;50.720;11.342;2023-05-23T13:48:36;2.43;;;1.10;;
44973;SDS011;60981;50.720;11.342;2023-05-23T13:49:39;3.67;;;1.20;;
44973;SDS011;60981;50.720;11.342;2023-05-23T13:50:42;2.30;;;1.20;;
44973;SDS011;60981;50.720;11.342;2023-05-23T13:51:44;3.70;;;1.35;;
44973;SDS011;60981;50.720;11.342;2023-05-23T13:52:48;3.88;;;1.30;;
44973;SDS011;60981;50.720;11.342;2023-05-23T13:53:50;5.20;;;2.40;;
44973;SDS011;60981;50.720;11.342;2023-05-23T13:54:53;3.63;;;1.30;;
44973;SDS011;60981;50.720;11.342;2023-05-23T13:55:55;3.65;;;1.40;;
44973;SDS011;60981;50.720;11.342;2023-05-23T13:56:57;6.45;;;1.80;;
44973;SDS011;60981;50.720;11.342;2023-05-23T13:58:00;4.50;;;1.70;;
44973;SDS011;60981;50.720;11.342;2023-05-23T13:59:02;3.50;;;1.77;;
44973;SDS011;60981;50.720;11.342;2023-05-23T14:00:05;5.82;;;1.73;;
44973;SDS011;60981;50.720;11.342;2023-05-23T14:01:10;3.67;;;1.80;;
44973;SDS011;60981;50.720;11.342;2023-05-23T14:02:12;3.55;;;1.75;;
44973;SDS011;60981;50.720;11.342;2023-05-23T14:03:14;5.20;;;1.90;;
44973;SDS011;60981;50.720;11.342;2023-05-23T14:04:16;3.40;;;1.73;;
44973;SDS011;60981;50.720;11.342;2023-05-23T14:05:18;3.58;;;1.85;;
44973;SDS011;60981;50.720;11.342;2023-05-23T14:06:21;4.82;;;2.08;;
44973;SDS011;60981;50.720;11.342;2023-05-23T14:07:23;3.72;;;1.70;;
44973;SDS011;60981;50.720;11.342;2023-05-23T14:08:27;3.67;;;1.65;;
44973;SDS011;60981;50.720;11.342;2023-05-23T14:09:29;5.18;;;1.75;;
44973;SDS011;60981;50.720;11.342;2023-05-23T14:10:31;3.30;;;1.88;;
44973;SDS011;60981;50.720;11.342;2023-05-23T14:11:34;3.42;;;1.63;;
44973;SDS011;60981;50.720;11.342;2023-05-23T14:12:36;3.90;;;1.77;;
44973;SDS011;60981;50.720;11.342;2023-05-23T14:13:39;4.45;;;1.90;;
44973;SDS011;60981;50.720;11.342;2023-05-23T14:14:41;3.80;;;1.80;;
44973;SDS011;60981;50.720;11.342;2023-05-23T14:15:44;4.80;;;2.00;;
44973;SDS011;60981;50.720;11.342;2023-05-23T14:16:54;4.30;;;2.20;;
44973;SDS011;60981;50.720;11.342;2023-05-23T14:18:20;3.70;;;1.40;;
44973;SDS011;60981;50.720;11.342;2023-05-23T14:19:36;3.70;;;1.70;;
44973;SDS011;60981;50.720;11.342;2023-05-23T14:20:53;4.57;;;2.53;;
44973;SDS011;60981;50.720;11.342;2023-05-23T14:24:04;3.80;;;1.48;;
44973;SDS011;60981;50.720;11.342;2023-05-23T14:25:33;5.60;;;2.30;;
44973;SDS011;60981;50.720;11.342;2023-05-23T14:26:46;3.38;;;1.58;;
44973;SDS011;60981;50.720;11.342;2023-05-23T14:28:07;4.03;;;1.55;;
44973;SDS011;60981;50.720;11.342;2023-05-23T14:29:46;2.78;;;1.40;;
44973;SDS011;60981;50.720;11.342;2023-05-23T14:30:56;2.95;;;1.42;;
44973;SDS011;60981;50.720;11.342;2023-05-23T14:31:59;2.90;;;1.23;;
44973;SDS011;60981;50.720;11.342;2023-05-23T14:33:03;3.08;;;1.30;;
44973;SDS011;60981;50.720;11.342;2023-05-23T14:34:09;3.80;;;1.27;;
44973;SDS011;60981;50.720;11.342;2023-05-23T14:35:13;3.28;;;0.80;;
44973;SDS011;60981;50.720;11.342;2023-05-23T14:36:15;3.35;;;1.50;;
44973;SDS011;60981;50.720;11.342;2023-05-23T14:37:17;2.80;;;1.10;;
44973;SDS011;60981;50.720;11.342;2023-05-23T14:38:19;4.00;;;1.08;;
44973;SDS011;60981;50.720;11.342;2023-05-23T14:39:21;2.50;;;0.90;;
44973;SDS011;60981;50.720;11.342;2023-05-23T14:40:24;2.72;;;1.20;;
44973;SDS011;60981;50.720;11.342;2023-05-23T14:41:26;3.03;;;1.10;;
44973;SDS011;60981;50.720;11.342;2023-05-23T14:42:38;2.40;;;0.90;;
44973;SDS011;60981;50.720;11.342;2023-05-23T14:43:40;7.88;;;1.10;;
44973;SDS011;60981;50.720;11.342;2023-05-23T14:44:42;6.20;;;1.40;;
44973;SDS011;60981;50.720;11.342;2023-05-23T14:45:44;3.55;;;1.33;;
44973;SDS011;60981;50.720;11.342;2023-05-23T14:46:46;4.93;;;1.30;;
44973;SDS011;60981;50.720;11.342;2023-05-23T14:47:52;3.38;;;1.15;;
44973;SDS011;60981;50.720;11.342;2023-05-23T14:48:54;2.70;;;1.10;;
44973;SDS011;60981;50.720;11.342;2023-05-23T14:49:56;3.80;;;1.10;;
44973;SDS011;60981;50.720;11.342;2023-05-23T14:50:58;2.58;;;1.23;;
44973;SDS011;60981;50.720;11.342;2023-05-23T14:52:02;4.45;;;1.70;;
44973;SDS011;60981;50.720;11.342;2023-05-23T14:53:05;3.65;;;1.40;;
44973;SDS011;60981;50.720;11.342;2023-05-23T14:54:07;3.72;;;1.55;;
44973;SDS011;60981;50.720;11.342;2023-05-23T14:55:10;3.45;;;0.93;;
44973;SDS011;60981;50.720;11.342;2023-05-23T14:56:12;2.55;;;1.02;;
44973;SDS011;60981;50.720;11.342;2023-05-23T14:57:14;3.20;;;1.00;;
44973;SDS011;60981;50.720;11.342;2023-05-23T14:58:16;4.10;;;1.60;;
44973;SDS011;60981;50.720;11.342;2023-05-23T14:59:19;4.75;;;1.90;;
44973;SDS011;60981;50.720;11.342;2023-05-23T15:00:22;2.78;;;1.25;;
44973;SDS011;60981;50.720;11.342;2023-05-23T15:01:24;3.37;;;1.60;;
44973;SDS011;60981;50.720;11.342;2023-05-23T15:02:26;3.83;;;1.20;;
44973;SDS011;60981;50.720;11.342;2023-05-23T15:03:28;2.90;;;1.30;;
44973;SDS011;60981;50.720;11.342;2023-05-23T15:04:30;3.40;;;1.15;;
44973;SDS011;60981;50.720;11.342;2023-05-23T15:05:32;2.63;;;1.08;;
44973;SDS011;60981;50.720;11.342;2023-05-23T15:06:34;2.50;;;1.10;;
44973;SDS011;60981;50.720;11.342;2023-05-23T15:07:35;4.65;;;2.03;;
44973;SDS011;60981;50.720;11.342;2023-05-23T15:08:39;3.53;;;1.70;;
44973;SDS011;60981;50.720;11.342;2023-05-23T15:09:41;2.90;;;1.20;;
44973;SDS011;60981;50.720;11.342;2023-05-23T15:10:43;3.55;;;1.33;;
44973;SDS011;60981;50.720;11.342;2023-05-23T15:11:45;3.03;;;1.50;;
44973;SDS011;60981;50.720;11.342;2023-05-23T15:12:49;3.67;;;1.30;;
44973;SDS011;60981;50.720;11.342;2023-05-23T15:13:51;3.13;;;1.55;;
44973;SDS011;60981;50.720;11.342;2023-05-23T15:14:53;3.22;;;1.25;;
44973;SDS011;60981;50.720;11.342;2023-05-23T15:15:54;4.07;;;1.42;;
44973;SDS011;60981;50.720;11.342;2023-05-23T15:16:57;2.70;;;1.30;;
44973;SDS011;60981;50.720;11.342;2023-05-23T15:17:59;2.45;;;1.33;;
44973;SDS011;60981;50.720;11.342;2023-05-23T15:19:05;3.03;;;1.42;;
44973;SDS011;60981;50.720;11.342;2023-05-23T15:20:07;3.08;;;1.52;;
44973;SDS011;60981;50.720;11.342;2023-05-23T15:21:09;3.20;;;1.52;;
44973;SDS011;60981;50.720;11.342;2023-05-23T15:22:11;3.25;;;1.50;;
44973;SDS011;60981;50.720;11.342;2023-05-23T15:23:33;3.30;;;1.70;;
44973;SDS011;60981;50.720;11.342;2023-05-23T15:24:34;4.80;;;2.50;;
44973;SDS011;60981;50.720;11.342;2023-05-23T15:25:39;3.08;;;1.58;;
44973;SDS011;60981;50.720;11.342;2023-05-23T15:26:50;3.60;;;1.75;;
44973;SDS011;60981;50.720;11.342;2023-05-23T15:27:52;3.13;;;1.50;;
44973;SDS011;60981;50.720;11.342;2023-05-23T15:28:54;3.63;;;1.80;;
44973;SDS011;60981;50.720;11.342;2023-05-23T15:29:56;4.07;;;1.75;;
44973;SDS011;60981;50.720;11.342;2023-05-23T15:30:57;4.13;;;1.50;;
44973;SDS011;60981;50.720;11.342;2023-05-23T15:32:00;4.10;;;1.80;;
44973;SDS011;60981;50.720;11.342;2023-05-23T15:33:02;3.80;;;1.83;;
44973;SDS011;60981;50.720;11.342;2023-05-23T15:34:04;4.15;;;1.70;;
44973;SDS011;60981;50.720;11.342;2023-05-23T15:35:05;3.20;;;1.70;;
44973;SDS011;60981;50.720;11.342;2023-05-23T15:36:08;3.38;;;1.95;;
44973;SDS011;60981;50.720;11.342;2023-05-23T15:37:10;3.08;;;1.77;;
44973;SDS011;60981;50.720;11.342;2023-05-23T15:38:11;3.55;;;1.80;;
44973;SDS011;60981;50.720;11.342;2023-05-23T15:39:15;4.05;;;1.80;;
44973;SDS011;60981;50.720;11.342;2023-05-23T15:40:17;4.18;;;1.80;;
44973;SDS011;60981;50.720;11.342;2023-05-23T15:41:19;3.90;;;2.10;;
44973;SDS011;60981;50.720;11.342;2023-05-23T15:42:21;5.32;;;2.88;;
44973;SDS011;60981;50.720;11.342;2023-05-23T15:43:22;4.43;;;2.08;;
44973;SDS011;60981;50.720;11.342;2023-05-23T15:44:25;3.95;;;1.85;;
44973;SDS011;60981;50.720;11.342;2023-05-23T15:45:27;2.78;;;1.45;;
44973;SDS011;60981;50.720;11.342;2023-05-23T15:46:29;3.35;;;1.55;;
44973;SDS011;60981;50.720;11.342;2023-05-23T15:47:31;4.38;;;2.05;;
44973;SDS011;60981;50.720;11.342;2023-05-23T15:48:32;3.00;;;1.40;;
44973;SDS011;60981;50.720;11.342;2023-05-23T15:49:34;2.90;;;1.55;;
44973;SDS011;60981;50.720;11.342;2023-05-23T15:50:36;4.68;;;1.58;;
44973;SDS011;60981;50.720;11.342;2023-05-23T15:51:37;4.20;;;1.60;;
44973;SDS011;60981;50.720;11.342;2023-05-23T15:52:39;3.30;;;1.67;;
44973;SDS011;60981;50.720;11.342;2023-05-23T15:53:41;4.53;;;1.88;;
44973;SDS011;60981;50.720;11.342;2023-05-23T15:55:01;5.18;;;2.00;;
44973;SDS011;60981;50.720;11.342;2023-05-23T15:56:06;4.03;;;1.90;;
44973;SDS011;60981;50.720;11.342;2023-05-23T15:57:07;4.10;;;2.15;;
44973;SDS011;60981;50.720;11.342;2023-05-23T15:58:09;4.72;;;2.38;;
44973;SDS011;60981;50.720;11.342;2023-05-23T15:59:11;4.40;;;2.50;;
44973;SDS011;60981;50.720;11.342;2023-05-23T16:00:13;4.55;;;2.72;;
44973;SDS011;60981;50.720;11.342;2023-05-23T16:01:15;4.13;;;2.30;;
44973;SDS011;60981;50.720;11.342;2023-05-23T16:02:17;5.25;;;2.53;;
44973;SDS011;60981;50.720;11.342;2023-05-23T16:03:19;5.75;;;2.63;;
44973;SDS011;60981;50.720;11.342;2023-05-23T16:04:21;4.22;;;2.70;;
44973;SDS011;60981;50.720;11.342;2023-05-23T16:05:23;4.63;;;2.28;;
44973;SDS011;60981;50.720;11.342;2023-05-23T16:06:26;4.45;;;2.70;;
44973;SDS011;60981;50.720;11.342;2023-05-23T16:07:28;4.75;;;2.63;;
44973;SDS011;60981;50.720;11.342;2023-05-23T16:08:30;7.32;;;3.17;;
44973;SDS011;60981;50.720;11.342;2023-05-23T16:09:31;4.40;;;2.90;;
44973;SDS011;60981;50.720;11.342;2023-05-23T16:10:33;4.38;;;2.78;;
44973;SDS011;60981;50.720;11.342;2023-05-23T16:11:35;5.60;;;2.90;;
44973;SDS011;60981;50.720;11.342;2023-05-23T16:12:37;4.88;;;3.05;;
44973;SDS011;60981;50.720;11.342;2023-05-23T16:13:38;4.25;;;2.58;;
44973;SDS011;60981;50.720;11.342;2023-05-23T16:14:40;4.68;;;2.50;;
44973;SDS011;60981;50.720;11.342;2023-05-23T16:15:42;4.53;;;2.53;;
44973;SDS011;60981;50.720;11.342;2023-05-23T16:16:44;6.45;;;4.00;;
44973;SDS011;60981;50.720;11.342;2023-05-23T16:17:46;6.22;;;3.60;;
44973;SDS011;60981;50.720;11.342;2023-05-23T16:18:47;5.22;;;3.15;;
44973;SDS011;60981;50.720;11.342;2023-05-23T16:19:49;5.88;;;3.53;;
44973;SDS011;60981;50.720;11.342;2023-05-23T16:20:51;5.90;;;3.40;;
44973;SDS011;60981;50.720;11.342;2023-05-23T16:21:52;5.10;;;2.88;;
44973;SDS011;60981;50.720;11.342;2023-05-23T16:22:55;6.15;;;3.63;;
44973;SDS011;60981;50.720;11.342;2023-05-23T16:23:56;5.90;;;3.80;;
44973;SDS011;60981;50.720;11.342;2023-05-23T16:24:58;5.75;;;3.35;;
44973;SDS011;60981;50.720;11.342;2023-05-23T16:26:00;4.88;;;3.15;;
44973;SDS011;60981;50.720;11.342;2023-05-23T16:27:01;5.60;;;3.20;;
44973;SDS011;60981;50.720;11.342;2023-05-23T16:28:04;10.82;;;3.30;;
44973;SDS011;60981;50.720;11.342;2023-05-23T16:29:06;5.57;;;3.75;;
44973;SDS011;60981;50.720;11.342;2023-05-23T16:30:08;5.07;;;3.35;;
44973;SDS011;60981;50.720;11.342;2023-05-23T16:31:13;5.47;;;3.60;;
44973;SDS011;60981;50.720;11.342;2023-05-23T16:32:15;5.78;;;3.53;;
44973;SDS011;60981;50.720;11.342;2023-05-23T16:33:17;5.93;;;3.30;;
44973;SDS011;60981;50.720;11.342;2023-05-23T16:34:20;5.75;;;3.03;;
44973;SDS011;60981;50.720;11.342;2023-05-23T16:35:22;4.95;;;2.85;;
44973;SDS011;60981;50.720;11.342;2023-05-23T16:36:23;5.10;;;3.38;;
44973;SDS011;60981;50.720;11.342;2023-05-23T16:37:25;5.95;;;3.22;;
44973;SDS011;60981;50.720;11.342;2023-05-23T16:38:27;5.38;;;2.88;;
44973;SDS011;60981;50.720;11.342;2023-05-23T16:39:29;5.85;;;3.10;;
44973;SDS011;60981;50.720;11.342;2023-05-23T16:40:30;5.13;;;3.20;;
44973;SDS011;60981;50.720;11.342;2023-05-23T16:41:32;5.25;;;3.30;;
44973;SDS011;60981;50.720;11.342;2023-05-23T16:42:36;4.47;;;2.85;;
44973;SDS011;60981;50.720;11.342;2023-05-23T16:43:38;6.15;;;3.08;;
44973;SDS011;60981;50.720;11.342;2023-05-23T16:44:40;6.80;;;3.30;;
44973;SDS011;60981;50.720;11.342;2023-05-23T16:45:41;6.82;;;3.83;;
44973;SDS011;60981;50.720;11.342;2023-05-23T16:46:44;5.10;;;3.03;;
44973;SDS011;60981;50.720;11.342;2023-05-23T16:47:46;6.32;;;3.08;;
44973;SDS011;60981;50.720;11.342;2023-05-23T16:48:47;5.07;;;3.00;;
44973;SDS011;60981;50.720;11.342;2023-05-23T16:49:49;5.18;;;2.97;;
44973;SDS011;60981;50.720;11.342;2023-05-23T16:50:55;5.68;;;2.95;;
44973;SDS011;60981;50.720;11.342;2023-05-23T16:51:57;4.72;;;2.65;;
44973;SDS011;60981;50.720;11.342;2023-05-23T16:52:58;5.18;;;2.85;;
44973;SDS011;60981;50.720;11.342;2023-05-23T16:54:00;5.95;;;3.75;;
44973;SDS011;60981;50.720;11.342;2023-05-23T16:55:02;5.53;;;3.40;;
44973;SDS011;60981;50.720;11.342;2023-05-23T16:56:04;5.90;;;3.20;;
44973;SDS011;60981;50.720;11.342;2023-05-23T16:57:05;5.13;;;2.70;;
44973;SDS011;60981;50.720;11.342;2023-05-23T16:58:08;5.63;;;3.10;;
44973;SDS011;60981;50.720;11.342;2023-05-23T16:59:09;7.03;;;3.28;;
44973;SDS011;60981;50.720;11.342;2023-05-23T17:00:11;5.30;;;3.15;;
44973;SDS011;60981;50.720;11.342;2023-05-23T17:01:13;5.03;;;3.10;;
44973;SDS011;60981;50.720;11.342;2023-05-23T17:02:17;5.40;;;3.30;;
44973;SDS011;60981;50.720;11.342;2023-05-23T17:03:19;7.18;;;3.75;;
44973;SDS011;60981;50.720;11.342;2023-05-23T17:04:21;5.40;;;2.92;;
44973;SDS011;60981;50.720;11.342;2023-05-23T17:05:22;6.57;;;3.28;;
44973;SDS011;60981;50.720;11.342;2023-05-23T17:06:24;5.93;;;3.45;;
44973;SDS011;60981;50.720;11.342;2023-05-23T17:07:26;7.13;;;4.10;;
44973;SDS011;60981;50.720;11.342;2023-05-23T17:08:27;8.65;;;4.03;;
44973;SDS011;60981;50.720;11.342;2023-05-23T17:09:29;7.30;;;3.95;;
44973;SDS011;60981;50.720;11.342;2023-05-23T17:10:31;6.40;;;3.30;;
44973;SDS011;60981;50.720;11.342;2023-05-23T17:11:33;6.75;;;3.22;;
44973;SDS011;60981;50.720;11.342;2023-05-23T17:12:34;8.23;;;3.60;;
44973;SDS011;60981;50.720;11.342;2023-05-23T17:13:36;6.57;;;3.72;;
44973;SDS011;60981;50.720;11.342;2023-05-23T17:14:38;15.40;;;8.40;;
44973;SDS011;60981;50.720;11.342;2023-05-23T17:15:39;8.30;;;4.68;;
44973;SDS011;60981;50.720;11.342;2023-05-23T17:16:42;7.22;;;3.90;;
44973;SDS011;60981;50.720;11.342;2023-05-23T17:17:43;6.75;;;3.55;;
44973;SDS011;60981;50.720;11.342;2023-05-23T17:18:45;7.30;;;3.80;;
44973;SDS011;60981;50.720;11.342;2023-05-23T17:19:47;6.68;;;3.42;;
44973;SDS011;60981;50.720;11.342;2023-05-23T17:20:49;7.90;;;3.90;;
44973;SDS011;60981;50.720;11.342;2023-05-23T17:21:51;7.57;;;4.03;;
44973;SDS011;60981;50.720;11.342;2023-05-23T17:22:53;6.60;;;3.80;;
44973;SDS011;60981;50.720;11.342;2023-05-23T17:23:55;8.75;;;3.78;;
44973;SDS011;60981;50.720;11.342;2023-05-23T17:24:57;7.78;;;3.67;;
44973;SDS011;60981;50.720;11.342;2023-05-23T17:26:01;8.57;;;3.72;;
44973;SDS011;60981;50.720;11.342;2023-05-23T17:27:03;6.67;;;3.87;;
44973;SDS011;60981;50.720;11.342;2023-05-23T17:28:05;7.13;;;3.65;;
44973;SDS011;60981;50.720;11.342;2023-05-23T17:29:07;7.43;;;4.07;;
44973;SDS011;60981;50.720;11.342;2023-05-23T17:30:09;8.80;;;3.85;;
44973;SDS011;60981;50.720;11.342;2023-05-23T17:31:15;8.57;;;3.72;;
44973;SDS011;60981;50.720;11.342;2023-05-23T17:32:16;7.72;;;3.72;;
44973;SDS011;60981;50.720;11.342;2023-05-23T17:33:20;6.22;;;3.65;;
44973;SDS011;60981;50.720;11.342;2023-05-23T17:34:22;6.68;;;3.83;;
44973;SDS011;60981;50.720;11.342;2023-05-23T17:35:23;7.53;;;3.63;;
44973;SDS011;60981;50.720;11.342;2023-05-23T17:36:26;7.32;;;3.50;;
44973;SDS011;60981;50.720;11.342;2023-05-23T17:37:28;7.93;;;3.65;;
44973;SDS011;60981;50.720;11.342;2023-05-23T17:38:30;6.68;;;3.45;;
44973;SDS011;60981;50.720;11.342;2023-05-23T17:39:31;8.70;;;4.05;;
44973;SDS011;60981;50.720;11.342;2023-05-23T17:40:33;8.60;;;3.72;;
44973;SDS011;60981;50.720;11.342;2023-05-23T17:41:35;8.35;;;3.70;;
44973;SDS011;60981;50.720;11.342;2023-05-23T17:42:40;8.50;;;3.75;;
44973;SDS011;60981;50.720;11.342;2023-05-23T17:43:41;10.02;;;4.07;;
44973;SDS011;60981;50.720;11.342;2023-05-23T17:44:43;8.85;;;4.30;;
44973;SDS011;60981;50.720;11.342;2023-05-23T17:45:45;9.85;;;4.47;;
44973;SDS011;60981;50.720;11.342;2023-05-23T17:46:46;14.82;;;4.22;;
44973;SDS011;60981;50.720;11.342;2023-05-23T17:47:48;9.40;;;3.65;;
44973;SDS011;60981;50.720;11.342;2023-05-23T17:48:50;9.25;;;4.00;;
44973;SDS011;60981;50.720;11.342;2023-05-23T17:49:51;10.48;;;4.07;;
44973;SDS011;60981;50.720;11.342;2023-05-23T17:50:54;8.30;;;3.80;;
44973;SDS011;60981;50.720;11.342;2023-05-23T17:51:55;10.40;;;4.47;;
44973;SDS011;60981;50.720;11.342;2023-05-23T17:52:58;9.23;;;3.70;;
44973;SDS011;60981;50.720;11.342;2023-05-23T17:54:01;11.48;;;4.70;;
44973;SDS011;60981;50.720;11.342;2023-05-23T17:55:04;7.78;;;3.60;;
44973;SDS011;60981;50.720;11.342;2023-05-23T17:56:06;9.75;;;4.47;;
44973;SDS011;60981;50.720;11.342;2023-05-23T17:57:09;9.27;;;3.70;;
44973;SDS011;60981;50.720;11.342;2023-05-23T17:58:11;9.73;;;4.45;;
44973;SDS011;60981;50.720;11.342;2023-05-23T17:59:13;8.43;;;3.40;;
44973;SDS011;60981;50.720;11.342;2023-05-23T18:00:18;8.60;;;3.67;;
44973;SDS011;60981;50.720;11.342;2023-05-23T18:01:20;6.75;;;3.45;;
44973;SDS011;60981;50.720;11.342;2023-05-23T18:02:22;8.75;;;3.63;;
44973;SDS011;60981;50.720;11.342;2023-05-23T18:03:23;6.13;;;3.17;;
44973;SDS011;60981;50.720;11.342;2023-05-23T18:04:25;8.43;;;2.85;;
44973;SDS011;60981;50.720;11.342;2023-05-23T18:05:27;9.18;;;3.53;;
44973;SDS011;60981;50.720;11.342;2023-05-23T18:06:31;7.63;;;3.17;;
44973;SDS011;60981;50.720;11.342;2023-05-23T18:07:33;6.88;;;3.33;;
44973;SDS011;60981;50.720;11.342;2023-05-23T18:08:35;8.82;;;3.20;;
44973;SDS011;60981;50.720;11.342;2023-05-23T18:09:36;9.75;;;3.17;;
44973;SDS011;60981;50.720;11.342;2023-05-23T18:10:38;7.40;;;3.20;;
44973;SDS011;60981;50.720;11.342;2023-05-23T18:11:40;10.98;;;3.30;;
44973;SDS011;60981;50.720;11.342;2023-05-23T18:12:43;9.10;;;3.15;;
44973;SDS011;60981;50.720;11.342;2023-05-23T18:13:45;8.88;;;3.15;;
44973;SDS011;60981;50.720;11.342;2023-05-23T18:14:46;8.25;;;2.72;;
44973;SDS011;60981;50.720;11.342;2023-05-23T18:15:48;7.75;;;2.90;;
44973;SDS011;60981;50.720;11.342;2023-05-23T18:16:50;8.38;;;2.80;;
44973;SDS011;60981;50.720;11.342;2023-05-23T18:17:52;9.55;;;2.72;;
44973;SDS011;60981;50.720;11.342;2023-05-23T18:18:56;7.25;;;2.97;;
44973;SDS011;60981;50.720;11.342;2023-05-23T18:19:57;8.10;;;3.08;;
44973;SDS011;60981;50.720;11.342;2023-05-23T18:20:59;7.45;;;2.80;;
44973;SDS011;60981;50.720;11.342;2023-05-23T18:22:01;9.32;;;3.10;;
44973;SDS011;60981;50.720;11.342;2023-05-23T18:23:03;7.32;;;2.65;;
44973;SDS011;60981;50.720;11.342;2023-05-23T18:24:05;7.28;;;3.03;;
44973;SDS011;60981;50.720;11.342;2023-05-23T18:25:08;7.25;;;2.85;;
44973;SDS011;60981;50.720;11.342;2023-05-23T18:26:10;6.90;;;2.63;;
44973;SDS011;60981;50.720;11.342;2023-05-23T18:27:11;9.82;;;3.55;;
44973;SDS011;60981;50.720;11.342;2023-05-23T18:28:13;8.00;;;2.90;;
44973;SDS011;60981;50.720;11.342;2023-05-23T18:29:15;9.23;;;2.92;;
44973;SDS011;60981;50.720;11.342;2023-05-23T18:30:17;8.90;;;2.92;;
44973;SDS011;60981;50.720;11.342;2023-05-23T18:31:19;7.78;;;2.63;;
44973;SDS011;60981;50.720;11.342;2023-05-23T18:32:20;8.68;;;2.65;;
44973;SDS011;60981;50.720;11.342;2023-05-23T18:33:23;8.82;;;2.92;;
44973;SDS011;60981;50.720;11.342;2023-05-23T18:34:24;8.68;;;3.00;;
44973;SDS011;60981;50.720;11.342;2023-05-23T18:35:29;9.65;;;3.25;;
44973;SDS011;60981;50.720;11.342;2023-05-23T18:36:31;9.05;;;2.80;;
44973;SDS011;60981;50.720;11.342;2023-05-23T18:37:33;8.15;;;3.05;;
44973;SDS011;60981;50.720;11.342;2023-05-23T18:38:35;7.83;;;2.90;;
44973;SDS011;60981;50.720;11.342;2023-05-23T18:39:36;8.30;;;2.75;;
44973;SDS011;60981;50.720;11.342;2023-05-23T18:40:39;7.97;;;2.67;;
44973;SDS011;60981;50.720;11.342;2023-05-23T18:41:41;7.55;;;3.13;;
44973;SDS011;60981;50.720;11.342;2023-05-23T18:42:43;7.50;;;2.70;;
44973;SDS011;60981;50.720;11.342;2023-05-23T18:43:44;7.50;;;2.80;;
44973;SDS011;60981;50.720;11.342;2023-05-23T18:44:46;7.80;;;3.03;;
44973;SDS011;60981;50.720;11.342;2023-05-23T18:45:48;8.13;;;2.95;;
44973;SDS011;60981;50.720;11.342;2023-05-23T18:46:50;10.65;;;3.40;;
44973;SDS011;60981;50.720;11.342;2023-05-23T18:47:53;7.38;;;3.33;;
44973;SDS011;60981;50.720;11.342;2023-05-23T18:48:55;9.93;;;3.00;;
44973;SDS011;60981;50.720;11.342;2023-05-23T18:49:58;7.35;;;2.60;;
44973;SDS011;60981;50.720;11.342;2023-05-23T18:51:00;8.93;;;2.95;;
44973;SDS011;60981;50.720;11.342;2023-05-23T18:52:04;6.85;;;2.67;;
44973;SDS011;60981;50.720;11.342;2023-05-23T18:53:08;9.20;;;2.95;;
44973;SDS011;60981;50.720;11.342;2023-05-23T18:54:10;10.77;;;3.03;;
44973;SDS011;60981;50.720;11.342;2023-05-23T18:55:12;10.60;;;2.97;;
44973;SDS011;60981;50.720;11.342;2023-05-23T18:56:14;8.75;;;3.28;;